createdAt,value
2023-02-04T00:00:15.723Z,6.76
2023-02-04T00:02:42.159Z,6.79
2023-02-04T00:05:10.992Z,6.76
2023-02-04T00:07:38.458Z,6.71
2023-02-04T00:10:06.629Z,6.74
2023-02-04T00:12:34.420Z,6.73
2023-02-04T00:15:01.079Z,6.71
2023-02-04T00:17:27.725Z,6.65
2023-02-04T00:19:54.267Z,6.69
2023-02-04T00:22:21.122Z,6.75
2023-02-04T00:24:49.903Z,6.75
2023-02-04T00:27:16.762Z,6.71
2023-02-04T00:29:43.112Z,6.74
2023-02-04T00:32:10.036Z,6.73
2023-02-04T00:34:36.557Z,6.73
2023-02-04T00:37:03.378Z,6.79
2023-02-04T00:39:29.961Z,6.71
2023-02-04T00:41:56.437Z,6.70
2023-02-04T00:44:22.895Z,6.71
2023-02-04T00:46:49.463Z,6.63
2023-02-04T00:49:15.847Z,6.65
2023-02-04T00:51:46.405Z,6.59
2023-02-04T00:54:14.564Z,6.53
2023-02-04T00:56:42.049Z,6.54
2023-02-04T00:59:08.676Z,6.53
2023-02-04T01:01:35.381Z,6.64
2023-02-04T01:04:01.919Z,6.52
2023-02-04T01:06:28.323Z,6.56
2023-02-04T01:08:54.849Z,6.54
2023-02-04T01:11:21.492Z,6.52
2023-02-04T01:13:47.933Z,6.56
2023-02-04T01:16:14.885Z,6.51
2023-02-04T01:18:41.547Z,6.50
2023-02-04T01:21:08.000Z,6.49
2023-02-04T01:23:34.566Z,6.49
2023-02-04T01:26:00.988Z,6.46
2023-02-04T01:28:27.869Z,6.52
2023-02-04T01:30:54.611Z,6.43
2023-02-04T01:33:21.670Z,6.37
2023-02-04T01:35:48.412Z,6.46
2023-02-04T01:38:14.831Z,6.33
2023-02-04T01:40:42.749Z,6.38
2023-02-04T01:43:10.186Z,6.42
2023-02-04T01:45:38.586Z,6.35
2023-02-04T01:48:07.487Z,6.35
2023-02-04T01:50:34.584Z,6.33
2023-02-04T01:53:01.544Z,6.38
2023-02-04T01:55:31.366Z,6.37
2023-02-04T01:57:58.945Z,6.39
2023-02-04T02:00:27.999Z,6.38
2023-02-04T02:02:54.972Z,6.30
2023-02-04T02:05:24.669Z,6.31
2023-02-04T02:07:53.961Z,6.38
2023-02-04T02:10:24.374Z,6.27
2023-02-04T02:12:51.302Z,6.33
2023-02-04T02:15:18.984Z,6.29
2023-02-04T02:17:45.740Z,6.25
2023-02-04T02:20:15.841Z,6.25
2023-02-04T02:22:54.442Z,6.24
2023-02-04T02:25:21.306Z,6.24
2023-02-04T02:27:47.988Z,6.25
2023-02-04T02:30:17.605Z,6.19
2023-02-04T02:32:46.307Z,6.33
2023-02-04T02:35:13.652Z,6.17
2023-02-04T02:37:40.199Z,6.27
2023-02-04T02:40:07.327Z,6.27
2023-02-04T02:42:33.934Z,6.23
2023-02-04T02:45:03.295Z,6.18
2023-02-04T02:47:30.123Z,6.22
2023-02-04T02:49:56.934Z,6.17
2023-02-04T02:52:23.311Z,6.12
2023-02-04T02:54:50.187Z,6.16
2023-02-04T02:57:21.048Z,6.17
2023-02-04T02:59:48.293Z,6.10
2023-02-04T03:02:21.920Z,6.12
2023-02-04T03:04:54.649Z,6.11
2023-02-04T03:07:22.596Z,6.07
2023-02-04T03:09:49.380Z,6.08
2023-02-04T03:12:15.981Z,6.09
2023-02-04T03:14:42.578Z,6.04
2023-02-04T03:17:10.599Z,6.04
2023-02-04T03:19:37.972Z,6.01
2023-02-04T03:22:05.561Z,6.06
2023-02-04T03:24:33.683Z,5.98
2023-02-04T03:27:00.972Z,5.95
2023-02-04T03:29:29.639Z,5.98
2023-02-04T03:31:56.841Z,5.92
2023-02-04T03:34:23.351Z,5.95
2023-02-04T03:36:49.830Z,5.98
2023-02-04T03:39:16.380Z,5.94
2023-02-04T03:41:43.023Z,5.90
2023-02-04T03:44:09.427Z,5.90
2023-02-04T03:46:36.076Z,5.93
2023-02-04T03:49:02.536Z,5.90
2023-02-04T03:51:29.171Z,5.87
2023-02-04T03:53:55.543Z,5.86
2023-02-04T03:56:22.038Z,5.89
2023-02-04T03:58:48.586Z,5.88
2023-02-04T04:01:15.123Z,5.88
2023-02-04T04:03:41.546Z,5.94
2023-02-04T04:06:09.924Z,5.96
2023-02-04T04:08:37.909Z,5.93
2023-02-04T04:11:04.350Z,5.95
2023-02-04T04:13:30.788Z,5.86
2023-02-04T04:15:57.490Z,5.83
2023-02-04T04:18:24.008Z,5.82
2023-02-04T04:20:50.381Z,5.94
2023-02-04T04:23:16.871Z,5.85
2023-02-04T04:25:43.291Z,5.81
2023-02-04T04:28:09.717Z,5.80
2023-02-04T04:30:36.256Z,5.85
2023-02-04T04:33:02.685Z,5.78
2023-02-04T04:35:29.056Z,5.79
2023-02-04T04:37:55.648Z,5.77
2023-02-04T04:40:22.064Z,5.77
2023-02-04T04:42:48.568Z,5.75
2023-02-04T04:45:14.970Z,5.74
2023-02-04T04:47:41.346Z,5.79
2023-02-04T04:50:08.527Z,5.82
2023-02-04T04:52:34.977Z,5.82
2023-02-04T04:55:01.645Z,5.82
2023-02-04T04:57:28.114Z,5.79
2023-02-04T04:59:54.818Z,5.76
2023-02-04T05:02:21.406Z,5.75
2023-02-04T05:04:47.876Z,5.77
2023-02-04T05:07:14.481Z,5.74
2023-02-04T05:09:41.250Z,5.71
2023-02-04T05:12:07.801Z,5.84
2023-02-04T05:14:34.478Z,5.94
2023-02-04T05:17:01.096Z,5.81
2023-02-04T05:19:27.501Z,5.79
2023-02-04T05:21:54.087Z,5.78
2023-02-04T05:24:20.749Z,5.85
2023-02-04T05:26:47.306Z,5.75
2023-02-04T05:29:13.726Z,5.73
2023-02-04T05:31:40.661Z,5.72
2023-02-04T05:34:07.122Z,5.78
2023-02-04T05:36:33.698Z,5.77
2023-02-04T05:39:00.138Z,5.74
2023-02-04T05:41:26.720Z,5.72
2023-02-04T05:43:53.133Z,5.68
2023-02-04T05:46:19.658Z,5.66
2023-02-04T05:48:46.065Z,5.64
2023-02-04T05:51:12.618Z,5.64
2023-02-04T05:53:39.054Z,5.64
2023-02-04T05:56:05.713Z,5.68
2023-02-04T05:58:33.615Z,5.73
2023-02-04T06:01:01.728Z,5.76
2023-02-04T06:03:29.464Z,5.76
2023-02-04T06:05:56.897Z,5.72
2023-02-04T06:08:24.129Z,5.73
2023-02-04T06:10:50.700Z,5.66
2023-02-04T06:13:17.092Z,5.65
2023-02-04T06:15:43.618Z,5.67
2023-02-04T06:18:10.330Z,5.63
2023-02-04T06:20:36.857Z,5.57
2023-02-04T06:23:03.283Z,5.63
2023-02-04T06:25:29.843Z,5.61
2023-02-04T06:27:56.309Z,5.53
2023-02-04T06:30:22.778Z,5.52
2023-02-04T06:32:49.156Z,5.54
2023-02-04T06:35:16.572Z,5.52
2023-02-04T06:37:43.393Z,5.50
2023-02-04T06:40:11.227Z,5.53
2023-02-04T06:42:37.668Z,5.45
2023-02-04T06:45:04.762Z,5.49
2023-02-04T06:47:31.276Z,5.44
2023-02-04T06:49:57.795Z,5.49
2023-02-04T06:52:24.203Z,5.46
2023-02-04T06:54:50.735Z,5.50
2023-02-04T06:57:17.136Z,5.49
2023-02-04T06:59:43.693Z,5.55
2023-02-04T07:02:11.425Z,5.54
2023-02-04T07:04:37.884Z,5.54
2023-02-04T07:07:07.056Z,5.47
2023-02-04T07:09:33.642Z,5.48
2023-02-04T07:12:00.077Z,5.48
2023-02-04T07:14:26.688Z,5.47
2023-02-04T07:16:53.184Z,5.58
2023-02-04T07:19:21.181Z,5.51
2023-02-04T07:21:48.047Z,5.53
2023-02-04T07:24:14.532Z,5.58
2023-02-04T07:26:40.954Z,5.50
2023-02-04T07:29:14.457Z,5.49
2023-02-04T07:31:41.828Z,5.49
2023-02-04T07:34:08.361Z,5.58
2023-02-04T07:36:34.806Z,5.50
2023-02-04T07:39:01.445Z,5.51
2023-02-04T07:41:27.913Z,5.48
2023-02-04T07:43:54.475Z,5.49
2023-02-04T07:46:20.991Z,5.52
2023-02-04T07:48:47.609Z,5.57
2023-02-04T07:51:13.996Z,5.57
2023-02-04T07:53:40.611Z,5.56
2023-02-04T07:56:07.437Z,5.56
2023-02-04T07:58:33.964Z,5.64
2023-02-04T08:01:01.297Z,5.68
2023-02-04T08:03:28.106Z,5.63
2023-02-04T08:05:54.842Z,5.67
2023-02-04T08:08:21.555Z,5.70
2023-02-04T08:10:48.073Z,5.77
2023-02-04T08:13:14.745Z,5.77
2023-02-04T08:15:41.513Z,5.79
2023-02-04T08:18:07.972Z,5.84
2023-02-04T08:20:34.730Z,5.84
2023-02-04T08:23:01.406Z,5.94
2023-02-04T08:25:28.963Z,5.95
2023-02-04T08:27:55.532Z,6.03
2023-02-04T08:30:22.158Z,6.05
2023-02-04T08:32:48.538Z,6.13
2023-02-04T08:35:15.187Z,6.12
2023-02-04T08:37:41.861Z,6.10
2023-02-04T08:40:08.952Z,6.10
2023-02-04T08:42:35.469Z,6.19
2023-02-04T08:45:03.901Z,6.10
2023-02-04T08:47:30.274Z,6.14
2023-02-04T08:49:56.817Z,6.23
2023-02-04T08:52:23.760Z,6.20
2023-02-04T08:54:50.265Z,6.11
2023-02-04T08:57:16.703Z,6.12
2023-02-04T08:59:45.968Z,6.11
2023-02-04T09:02:12.619Z,6.11
2023-02-04T09:04:39.032Z,6.19
2023-02-04T09:07:05.732Z,6.27
2023-02-04T09:09:32.112Z,6.26
2023-02-04T09:11:58.706Z,6.36
2023-02-04T09:14:25.134Z,6.43
2023-02-04T09:16:51.582Z,6.39
2023-02-04T09:19:23.854Z,6.44
2023-02-04T09:21:50.339Z,6.46
2023-02-04T09:24:16.782Z,6.44
2023-02-04T09:26:43.195Z,6.44
2023-02-04T09:29:09.704Z,6.54
2023-02-04T09:31:36.147Z,6.47
2023-02-04T09:34:02.664Z,6.47
2023-02-04T09:36:30.584Z,6.59
2023-02-04T09:38:56.999Z,6.71
2023-02-04T09:41:23.592Z,6.82
2023-02-04T09:43:50.628Z,6.90
2023-02-04T09:46:24.395Z,6.99
2023-02-04T09:48:51.513Z,7.10
2023-02-04T09:51:21.995Z,7.02
2023-02-04T09:53:49.621Z,7.11
2023-02-04T09:56:17.136Z,7.12
2023-02-04T09:58:44.036Z,7.08
2023-02-04T10:01:19.250Z,7.04
2023-02-04T10:03:48.366Z,7.01
2023-02-04T10:06:17.840Z,7.07
2023-02-04T10:08:46.185Z,7.11
2023-02-04T10:11:14.537Z,6.92
2023-02-04T10:13:48.556Z,7.00
2023-02-04T10:16:18.967Z,7.03
2023-02-04T10:18:45.756Z,6.98
2023-02-04T10:21:18.307Z,6.90
2023-02-04T10:23:48.968Z,7.06
2023-02-04T10:26:16.705Z,7.04
2023-02-04T10:28:44.097Z,7.12
2023-02-04T10:31:31.045Z,7.27
2023-02-04T10:34:04.971Z,7.34
2023-02-04T10:36:31.609Z,7.36
2023-02-04T10:39:03.891Z,7.36
2023-02-04T10:41:30.406Z,7.36
2023-02-04T10:44:10.395Z,7.34
2023-02-04T10:46:38.033Z,7.31
2023-02-04T10:49:05.731Z,7.27
2023-02-04T10:51:33.137Z,7.30
2023-02-04T10:54:18.825Z,7.39
2023-02-04T10:56:45.575Z,7.42
2023-02-04T10:59:26.930Z,7.55
2023-02-04T11:01:56.691Z,7.69
2023-02-04T11:04:24.182Z,7.75
2023-02-04T11:06:52.659Z,7.79
2023-02-04T11:09:19.725Z,7.77
2023-02-04T11:11:48.427Z,7.77
2023-02-04T11:14:28.213Z,7.80
2023-02-04T11:17:00.260Z,7.73
2023-02-04T11:19:37.149Z,7.70
2023-02-04T11:22:24.039Z,7.65
2023-02-04T11:24:51.968Z,7.68
2023-02-04T11:27:37.153Z,7.75
2023-02-04T11:30:23.233Z,7.83
2023-02-04T11:33:02.096Z,7.80
2023-02-04T11:35:30.239Z,7.85
2023-02-04T11:37:58.595Z,7.90
2023-02-04T11:40:26.972Z,7.86
2023-02-04T11:43:02.560Z,7.89
2023-02-04T11:45:31.224Z,7.87
2023-02-04T11:48:02.153Z,7.89
2023-02-04T11:50:32.343Z,7.84
2023-02-04T11:53:01.724Z,7.97
2023-02-04T11:55:30.863Z,7.81
2023-02-04T11:57:58.190Z,7.76
2023-02-04T12:00:30.315Z,7.83
2023-02-04T12:03:06.358Z,7.78
2023-02-04T12:05:54.759Z,7.78
2023-02-04T12:08:24.071Z,7.93
2023-02-04T12:11:02.817Z,8.00
2023-02-04T12:13:30.955Z,8.10
2023-02-04T12:16:06.020Z,8.13
2023-02-04T12:18:34.680Z,8.16
2023-02-04T12:21:02.663Z,8.26
2023-02-04T12:23:30.148Z,8.23
2023-02-04T12:25:57.246Z,8.16
2023-02-04T12:28:24.131Z,7.96
2023-02-04T12:30:50.773Z,8.05
2023-02-04T12:33:17.599Z,7.83
2023-02-04T12:35:44.029Z,7.79
2023-02-04T12:38:10.707Z,7.82
2023-02-04T12:40:37.950Z,7.99
2023-02-04T12:43:04.553Z,8.08
2023-02-04T12:45:31.552Z,8.08
2023-02-04T12:47:58.470Z,7.96
2023-02-04T12:50:26.033Z,7.85
2023-02-04T12:52:54.314Z,8.00
2023-02-04T12:55:22.399Z,7.96
2023-02-04T12:57:49.503Z,7.89
2023-02-04T13:00:18.041Z,7.86
2023-02-04T13:02:44.833Z,7.79
2023-02-04T13:05:12.468Z,7.93
2023-02-04T13:07:40.670Z,7.88
2023-02-04T13:10:09.343Z,7.97
2023-02-04T13:12:35.880Z,7.95
2023-02-04T13:15:02.410Z,7.98
2023-02-04T13:17:29.159Z,8.06
2023-02-04T13:19:55.524Z,8.09
2023-02-04T13:22:22.049Z,8.07
2023-02-04T13:24:48.560Z,8.10
2023-02-04T13:27:15.335Z,8.17
2023-02-04T13:29:42.233Z,8.25
2023-02-04T13:32:09.493Z,8.19
2023-02-04T13:34:36.250Z,8.16
2023-02-04T13:37:02.676Z,8.15
2023-02-04T13:39:30.005Z,8.18
2023-02-04T13:41:56.392Z,8.22
2023-02-04T13:44:22.940Z,8.25
2023-02-04T13:46:49.593Z,8.14
2023-02-04T13:49:16.032Z,8.04
2023-02-04T13:51:42.542Z,8.01
2023-02-04T13:54:09.119Z,8.07
2023-02-04T13:56:36.500Z,8.13
2023-02-04T13:59:04.266Z,8.14
2023-02-04T14:01:31.606Z,8.18
2023-02-04T14:03:58.137Z,8.16
2023-02-04T14:06:33.070Z,8.13
2023-02-04T14:09:00.751Z,8.14
2023-02-04T14:11:31.272Z,8.19
2023-02-04T14:13:57.783Z,8.08
2023-02-04T14:16:24.340Z,8.13
2023-02-04T14:18:50.793Z,8.12
2023-02-04T14:21:17.520Z,8.19
2023-02-04T14:23:43.995Z,8.10
2023-02-04T14:26:10.604Z,8.11
2023-02-04T14:28:37.011Z,8.11
2023-02-04T14:31:03.523Z,8.01
2023-02-04T14:33:30.266Z,7.95
2023-02-04T14:35:57.011Z,7.95
2023-02-04T14:38:23.500Z,7.97
2023-02-04T14:40:50.045Z,7.99
2023-02-04T14:43:16.664Z,8.01
2023-02-04T14:45:43.090Z,8.04
2023-02-04T14:48:09.659Z,8.08
2023-02-04T14:50:36.205Z,8.13
2023-02-04T14:53:03.124Z,8.05
2023-02-04T14:55:29.552Z,8.04
2023-02-04T14:57:56.145Z,8.04
2023-02-04T15:00:22.642Z,8.01
2023-02-04T15:02:49.077Z,7.81
2023-02-04T15:05:15.591Z,7.77
2023-02-04T15:07:42.111Z,7.66
2023-02-04T15:10:09.935Z,7.55
2023-02-04T15:12:37.536Z,7.45
2023-02-04T15:15:05.535Z,7.44
2023-02-04T15:17:32.008Z,7.41
2023-02-04T15:19:58.629Z,7.49
2023-02-04T15:22:25.058Z,7.51
2023-02-04T15:24:51.605Z,7.48
2023-02-04T15:27:18.011Z,7.42
2023-02-04T15:29:44.471Z,7.42
2023-02-04T15:32:10.873Z,7.40
2023-02-04T15:34:38.150Z,7.37
2023-02-04T15:37:04.900Z,7.29
2023-02-04T15:39:31.573Z,7.28
2023-02-04T15:41:58.000Z,7.27
2023-02-04T15:44:26.543Z,7.22
2023-02-04T15:46:54.160Z,7.23
2023-02-04T15:49:21.140Z,7.21
2023-02-04T15:51:47.634Z,7.19
2023-02-04T15:54:14.660Z,7.15
2023-02-04T15:56:41.882Z,7.09
2023-02-04T15:59:08.867Z,7.04
2023-02-04T16:01:35.488Z,6.97
2023-02-04T16:04:02.042Z,6.92
2023-02-04T16:06:28.535Z,6.80
2023-02-04T16:08:54.945Z,6.70
2023-02-04T16:11:21.518Z,6.61
2023-02-04T16:13:47.888Z,6.45
2023-02-04T16:16:14.374Z,6.33
2023-02-04T16:18:41.555Z,6.31
2023-02-04T16:21:07.975Z,6.22
2023-02-04T16:23:34.473Z,6.11
2023-02-04T16:26:00.866Z,6.05
2023-02-04T16:28:27.218Z,5.90
2023-02-04T16:30:53.864Z,5.81
2023-02-04T16:33:20.318Z,5.73
2023-02-04T16:36:01.949Z,5.64
2023-02-04T16:38:29.506Z,5.62
2023-02-04T16:40:56.601Z,5.52
2023-02-04T16:43:23.846Z,5.44
2023-02-04T16:45:50.801Z,5.33
2023-02-04T16:48:17.684Z,5.25
2023-02-04T16:50:44.164Z,5.11
2023-02-04T16:53:15.005Z,5.05
2023-02-04T16:55:45.891Z,4.96
2023-02-04T16:58:15.003Z,4.86
2023-02-04T17:00:44.373Z,4.79
2023-02-04T17:03:12.568Z,4.69
2023-02-04T17:05:39.662Z,4.60
2023-02-04T17:08:07.267Z,4.59
2023-02-04T17:10:53.241Z,4.56
2023-02-04T17:13:20.570Z,4.41
2023-02-04T17:15:47.203Z,4.26
2023-02-04T17:18:13.584Z,4.17
2023-02-04T17:20:40.938Z,4.16
2023-02-04T17:23:07.599Z,4.10
2023-02-04T17:25:34.571Z,4.01
2023-02-04T17:28:01.373Z,3.92
2023-02-04T17:30:28.569Z,3.91
2023-02-04T17:32:54.989Z,3.87
2023-02-04T17:35:21.544Z,3.90
2023-02-04T17:37:47.952Z,3.84
2023-02-04T17:40:14.664Z,3.74
2023-02-04T17:42:41.493Z,3.73
2023-02-04T17:45:10.628Z,3.65
2023-02-04T17:47:38.786Z,3.63
2023-02-04T17:50:09.766Z,3.61
2023-02-04T17:52:37.707Z,3.56
2023-02-04T17:55:15.293Z,3.51
2023-02-04T17:57:41.714Z,3.43
2023-02-04T18:00:17.010Z,3.40
2023-02-04T18:02:46.116Z,3.35
2023-02-04T18:05:19.125Z,3.26
2023-02-04T18:08:12.829Z,3.14
2023-02-04T18:10:42.789Z,3.08
2023-02-04T18:13:24.224Z,3.05
2023-02-04T18:15:56.137Z,3.02
2023-02-04T18:18:35.844Z,2.97
2023-02-04T18:21:26.979Z,2.92
2023-02-04T18:24:11.431Z,2.87
2023-02-04T18:26:44.195Z,2.83
2023-02-04T18:29:27.866Z,2.80
2023-02-04T18:32:22.266Z,2.75
2023-02-04T18:34:54.764Z,2.70
2023-02-04T18:37:33.056Z,2.67
2023-02-04T18:40:08.467Z,2.63
2023-02-04T18:42:38.594Z,2.57
2023-02-04T18:45:26.379Z,2.50
2023-02-04T18:47:58.378Z,2.46
2023-02-04T18:50:33.781Z,2.41
2023-02-04T18:53:01.607Z,2.34
2023-02-04T18:55:37.530Z,2.22
2023-02-04T18:58:32.072Z,2.16
2023-02-04T19:01:01.606Z,2.12
2023-02-04T19:03:31.084Z,2.16
2023-02-04T19:06:00.949Z,2.15
2023-02-04T19:08:45.869Z,2.12
2023-02-04T19:11:35.379Z,2.12
2023-02-04T19:14:03.086Z,2.12
2023-02-04T19:16:36.754Z,2.08
2023-02-04T19:19:29.191Z,2.11
2023-02-04T19:21:55.926Z,2.11
2023-02-04T19:24:26.642Z,2.05
2023-02-04T19:27:01.755Z,2.03
2023-02-04T19:29:34.307Z,2.01
2023-02-04T19:32:18.684Z,1.96
2023-02-04T19:34:45.095Z,1.98
2023-02-04T19:37:23.140Z,2.04
2023-02-04T19:39:50.810Z,2.09
2023-02-04T19:42:36.950Z,2.13
2023-02-04T19:45:21.902Z,2.14
2023-02-04T19:47:50.638Z,2.12
2023-02-04T19:50:27.459Z,2.14
2023-02-04T19:52:57.040Z,2.16
2023-02-04T19:55:28.107Z,2.20
2023-02-04T19:57:59.169Z,2.26
2023-02-04T20:00:35.215Z,2.27
2023-02-04T20:03:33.142Z,2.28
2023-02-04T20:06:14.090Z,2.23
2023-02-04T20:09:01.365Z,2.24
2023-02-04T20:11:41.729Z,2.28
2023-02-04T20:14:14.112Z,2.34
2023-02-04T20:16:46.644Z,2.38
2023-02-04T20:19:35.542Z,2.40
2023-02-04T20:22:17.218Z,2.47
2023-02-04T20:24:46.730Z,2.48
2023-02-04T20:27:36.112Z,2.50
2023-02-04T20:30:09.313Z,2.53
2023-02-04T20:32:47.148Z,2.58
2023-02-04T20:35:13.615Z,2.65
2023-02-04T20:37:42.272Z,2.68
2023-02-04T20:40:23.395Z,2.67
2023-02-04T20:42:59.768Z,2.67
2023-02-04T20:45:32.735Z,2.73
2023-02-04T20:48:18.052Z,2.72
2023-02-04T20:50:46.393Z,2.73
2023-02-04T20:53:20.436Z,2.78
2023-02-04T20:55:53.131Z,2.79
2023-02-04T20:58:33.109Z,2.86
2023-02-04T21:00:59.498Z,2.91
2023-02-04T21:03:30.237Z,2.96
2023-02-04T21:05:58.753Z,3.02
2023-02-04T21:08:27.928Z,3.03
2023-02-04T21:10:54.698Z,3.09
2023-02-04T21:13:21.212Z,3.09
2023-02-04T21:15:47.869Z,3.13
2023-02-04T21:18:14.436Z,3.16
2023-02-04T21:20:40.836Z,3.23
2023-02-04T21:23:07.844Z,3.24
2023-02-04T21:25:34.658Z,3.23
2023-02-04T21:28:01.365Z,3.25
2023-02-04T21:30:30.263Z,3.27
2023-02-04T21:32:57.951Z,3.30
2023-02-04T21:35:24.625Z,3.36
2023-02-04T21:37:52.009Z,3.33
2023-02-04T21:40:21.824Z,3.30
2023-02-04T21:42:49.379Z,3.34
2023-02-04T21:45:19.931Z,3.35
2023-02-04T21:47:47.625Z,3.40
2023-02-04T21:50:16.150Z,3.48
2023-02-04T21:52:42.973Z,3.52
2023-02-04T21:55:10.979Z,3.56
2023-02-04T21:57:37.973Z,3.59
2023-02-04T22:00:06.814Z,3.62
2023-02-04T22:02:33.714Z,3.65
2023-02-04T22:05:00.615Z,3.67
2023-02-04T22:07:27.214Z,3.68
2023-02-04T22:09:53.591Z,3.72
2023-02-04T22:12:20.241Z,3.72
2023-02-04T22:15:05.507Z,3.67
2023-02-04T22:17:32.521Z,3.66
2023-02-04T22:19:59.199Z,3.67
2023-02-04T22:22:25.679Z,3.69
2023-02-04T22:24:52.311Z,3.72
2023-02-04T22:27:19.025Z,3.72
2023-02-04T22:29:45.632Z,3.76
2023-02-04T22:32:12.003Z,3.78
2023-02-04T22:34:38.418Z,3.79
2023-02-04T22:37:05.029Z,3.85
2023-02-04T22:39:31.474Z,3.95
2023-02-04T22:41:58.120Z,4.06
2023-02-04T22:44:24.869Z,4.03
2023-02-04T22:46:51.576Z,3.97
2023-02-04T22:49:17.999Z,3.97
2023-02-04T22:51:44.515Z,3.93
2023-02-04T22:54:11.307Z,3.94
2023-02-04T22:56:37.850Z,3.94
2023-02-04T22:59:04.237Z,3.98
2023-02-04T23:01:30.628Z,4.02
2023-02-04T23:03:57.059Z,4.03
2023-02-04T23:06:23.770Z,4.02
2023-02-04T23:08:50.259Z,4.04
2023-02-04T23:11:18.453Z,4.04
2023-02-04T23:13:46.208Z,4.03
2023-02-04T23:16:12.731Z,4.00
2023-02-04T23:18:39.178Z,3.99
2023-02-04T23:21:06.068Z,4.00
2023-02-04T23:23:33.134Z,4.05
2023-02-04T23:26:03.257Z,4.12
2023-02-04T23:28:31.099Z,4.15
2023-02-04T23:30:58.086Z,4.17
2023-02-04T23:33:25.008Z,4.18
2023-02-04T23:35:51.782Z,4.21
2023-02-04T23:38:18.486Z,4.25
2023-02-04T23:40:44.973Z,4.28
2023-02-04T23:43:11.683Z,4.29
2023-02-04T23:45:38.239Z,4.41
2023-02-04T23:48:05.489Z,4.37
2023-02-04T23:50:31.926Z,4.37
2023-02-04T23:52:58.403Z,4.30
2023-02-04T23:55:25.121Z,4.30
2023-02-04T23:57:51.807Z,4.28
